Airfield :
LOGIN :

Register | Disclaimer

   EN    FR    IT 

 










Legend :    VFR   Marginal VFR   IFR   Intensive IFR   Very Intensive IFR
Visi :
Ceiling :
>= 8 km
>= 3000ft
5 to 8 km
1000 to 3000 ft
1500m to 5 km
500 to 1000 ft
800 to 1500m
200 to 500 ft
< 800m
< 200 ft
Symbols :   Thunderstorms  Fog  Heavy snow  Heavy precipitations  Wind > 20 kt
SIGMETs :     Misc.  Thunderstorms  Icing  Turbulence  Mountain Waves  Volcanic Ashes






- Airport Elevation : 265 ft
- IATA code : BJY


LYBT - Batajnica Air Base

CURRENT METAR :
  • 011800Z 14005KT CAVOK 03/M05 Q1019 NOSIG

EXPIRED METARs :
  • 011730Z 13007KT CAVOK 04/M06 Q1019 NOSIG
  • 011700Z 12006KT 080V140 CAVOK 04/M06 Q1019 NOSIG
  • 011630Z 10009KT CAVOK 05/M05 Q1019 NOSIG
  • 011600Z 10010KT 080V140 CAVOK 05/M06 Q1019 NOSIG
  • 011530Z 10010KT CAVOK 05/M05 Q1019 NOSIG
  • 011500Z 10010KT CAVOK 05/M05 Q1019 NOSIG

TAF TAF LYBT
Valid from the 01 at 18:00 until the 02 at 18:00 UTC


011700Z 0118/0218 11008KT 9999 SCT040 TX08/0212Z TNM01/0204Z
TEMPO 0203/0206 3000 BR



MET'MAP, your aeronautical weather chart ! - Copyright ORBIFLY December 2007 - Disclaimer

ORBIFLY MET'MAP TEAM :

Programming & Development : Alexandra Zaïnal
Concept & original design : Baudouin d'Aumeries
Assistance for programming : Marc-Olivier Méhu
Technical & hardware support : Manuel Goepfert

Contact : metmap@orbifly.com




SOURCES & CREDITS :

   NOAA